This is the latest recevied weather packets stored in our database for station/object ED1ZAI-13. If no packets are shown the sender has not sent any weather packets the latest 10 day(s).
| Time | Temp. | Humidity | Pressure | Rain* | Wind** | Luminosity | Snow |
|---|---|---|---|---|---|---|---|
| 1777972603 | 9.44° C | 64% | 1011.2 hPa | 0 mm | - | - | - |
| 1777972003 | 8.33° C | 67% | 1011.4 hPa | 0 mm | - | - | - |
| 1777971404 | 8.33° C | 68% | 1011.3 hPa | 0 mm | - | - | - |
| 1777970804 | 7.22° C | 73% | 1011.5 hPa | 0 mm | - | - | - |
| 1777970204 | 7.78° C | 73% | 1011.5 hPa | 0 mm | - | - | - |
| 1777969604 | 7.22° C | 75% | 1011.4 hPa | 0 mm | - | - | - |
| 1777969004 | 7.22° C | 74% | 1011.4 hPa | 0 mm | - | - | - |
| 1777968403 | 7.22° C | 76% | 1011.3 hPa | 0 mm | - | - | - |
| 1777967804 | 7.22° C | 73% | 1011.3 hPa | 0 mm | - | - | - |
| 1777967204 | 7.22° C | 76% | 1011.3 hPa | 0 mm | - | - | - |
| 1777966603 | 7.22° C | 80% | 1011.4 hPa | 0 mm | - | - | - |
| 1777966004 | 7.22° C | 80% | 1011.4 hPa | 0 mm | - | - | - |
| 1777965404 | 6.67° C | 81% | 1011.4 hPa | 0 mm | - | - | - |
| 1777964804 | 6.67° C | 81% | 1011.3 hPa | 0 mm | - | - | - |
| 1777964203 | 6.11° C | 82% | 1011.5 hPa | 0 mm | - | - | - |
| 1777963603 | 6.11° C | 81% | 1011.4 hPa | 0 mm | - | - | - |
| 1777963003 | 5.56° C | 84% | 1011.4 hPa | 0 mm | - | - | - |
| 1777962403 | 6.11° C | 85% | 1011.4 hPa | 0 mm | - | - | - |
| 1777961802 | 5.56° C | 87% | 1011.5 hPa | 0 mm | - | - | - |
| 1777961202 | 6.11° C | 87% | 1011.4 hPa | 0 mm | - | - | - |
| 1777960602 | 6.67° C | 86% | 1011.3 hPa | 0 mm | - | - | - |
| 1777960003 | 6.11° C | 87% | 1011.3 hPa | 0 mm | - | - | - |
| 1777959403 | 6.67° C | 87% | 1011.2 hPa | 0 mm | - | - | - |
| 1777958839 | 5.56° C | 88% | 1011.3 hPa | 0 mm | - | - | - |
| 1777958241 | 6.11° C | 88% | 1011.2 hPa | 0 mm | - | - | - |
* Rain latest hour (hover to see other rain measurements)
** Current wind speed in m/s (hover to see current wind gust speed)